createdAt,value
2018-10-21T00:00:54.547Z,10.80
2018-10-21T00:05:57.495Z,10.90
2018-10-21T00:11:00.458Z,10.90
2018-10-21T00:16:03.415Z,10.90
2018-10-21T00:21:06.599Z,10.80
2018-10-21T00:26:10.135Z,10.80
2018-10-21T00:31:13.691Z,10.80
2018-10-21T00:36:17.452Z,10.70
2018-10-21T00:41:20.956Z,10.80
2018-10-21T00:46:24.499Z,10.80
2018-10-21T00:51:27.983Z,10.70
2018-10-21T00:56:31.492Z,10.70
2018-10-21T01:01:34.962Z,10.80
2018-10-21T01:06:38.118Z,10.90
2018-10-21T01:11:42.096Z,10.90
2018-10-21T01:16:44.900Z,10.90
2018-10-21T01:21:47.780Z,11.00
2018-10-21T01:26:50.656Z,11.00
2018-10-21T01:31:53.564Z,11.00
2018-10-21T01:36:56.572Z,11.10
2018-10-21T01:41:59.414Z,11.10
2018-10-21T01:47:02.322Z,11.10
2018-10-21T01:52:05.410Z,11.10
2018-10-21T01:57:08.320Z,11.10
2018-10-21T02:02:11.241Z,11.10
2018-10-21T02:07:14.108Z,11.10
2018-10-21T02:12:16.972Z,11.10
2018-10-21T02:17:19.849Z,11.10
2018-10-21T02:22:22.760Z,11.10
2018-10-21T02:27:25.622Z,11.10
2018-10-21T02:32:28.635Z,11.10
2018-10-21T02:37:31.543Z,11.10
2018-10-21T02:42:34.427Z,11.10
2018-10-21T02:47:37.343Z,11.10
2018-10-21T02:52:40.167Z,11.10
2018-10-21T02:57:43.071Z,11.20
2018-10-21T03:02:46.026Z,11.20
2018-10-21T03:07:48.853Z,11.10
2018-10-21T03:12:52.037Z,11.10
2018-10-21T03:17:54.935Z,11.10
2018-10-21T03:22:57.936Z,11.10
2018-10-21T03:28:00.789Z,11.10
2018-10-21T03:33:10.599Z,11.20
2018-10-21T03:38:13.959Z,11.10
2018-10-21T03:43:18.709Z,11.20
2018-10-21T03:48:22.167Z,11.20
2018-10-21T03:53:25.841Z,11.20
2018-10-21T03:58:29.342Z,11.20
2018-10-21T04:03:32.854Z,11.30
2018-10-21T04:08:36.299Z,11.30
2018-10-21T04:13:39.901Z,11.40
2018-10-21T04:18:43.427Z,11.40
2018-10-21T04:23:46.880Z,11.40
2018-10-21T04:28:50.385Z,11.40
2018-10-21T04:33:53.953Z,11.40
2018-10-21T04:40:16.470Z,11.40
2018-10-21T04:45:21.234Z,11.40
2018-10-21T04:50:24.695Z,11.40
2018-10-21T04:55:28.100Z,11.40
2018-10-21T05:00:31.659Z,11.40
2018-10-21T05:05:35.351Z,11.50
2018-10-21T05:10:39.399Z,11.50
2018-10-21T05:15:42.820Z,11.50
2018-10-21T05:20:46.293Z,11.50
2018-10-21T05:25:49.988Z,11.50
2018-10-21T05:30:53.512Z,11.50
2018-10-21T05:35:57.092Z,11.50
2018-10-21T05:41:00.602Z,11.50
2018-10-21T05:46:04.564Z,11.50
2018-10-21T05:51:07.992Z,11.40
2018-10-21T05:56:11.486Z,11.40
2018-10-21T06:01:14.967Z,11.40
2018-10-21T06:06:18.484Z,11.40
2018-10-21T06:11:22.383Z,11.30
2018-10-21T06:16:26.821Z,11.30
2018-10-21T06:21:30.795Z,11.30
2018-10-21T06:26:34.429Z,11.30
2018-10-21T06:31:37.905Z,11.40
2018-10-21T06:36:41.649Z,11.40
2018-10-21T06:41:45.074Z,11.40
2018-10-21T06:46:48.625Z,11.50
2018-10-21T06:51:52.316Z,11.40
2018-10-21T06:56:55.918Z,11.50
2018-10-21T07:01:59.576Z,11.50
2018-10-21T07:07:03.328Z,11.40
2018-10-21T07:12:07.810Z,11.40
2018-10-21T07:17:11.329Z,11.40
2018-10-21T07:22:14.900Z,11.50
2018-10-21T07:27:18.398Z,11.60
2018-10-21T07:32:21.810Z,11.60
2018-10-21T07:37:25.590Z,11.70
2018-10-21T07:42:29.057Z,11.80
2018-10-21T07:47:32.699Z,11.90
2018-10-21T07:52:36.208Z,12.00
2018-10-21T07:57:39.828Z,12.10
2018-10-21T08:02:43.340Z,12.20
2018-10-21T08:07:57.787Z,12.30
2018-10-21T08:13:00.969Z,12.40
2018-10-21T08:18:04.139Z,12.50
2018-10-21T08:23:09.794Z,12.60
2018-10-21T08:28:12.717Z,12.60
2018-10-21T08:33:16.348Z,12.70
2018-10-21T08:38:19.872Z,13.10
2018-10-21T08:43:23.507Z,13.40
2018-10-21T08:48:27.042Z,13.50
2018-10-21T08:53:30.845Z,13.50
2018-10-21T08:58:34.439Z,13.40
2018-10-21T09:03:37.975Z,13.40
2018-10-21T09:08:41.484Z,13.30
2018-10-21T09:13:44.978Z,13.20
2018-10-21T09:18:48.452Z,13.20
2018-10-21T09:23:52.115Z,13.30
2018-10-21T09:28:55.724Z,13.30
2018-10-21T09:34:14.258Z,13.30
2018-10-21T09:39:17.816Z,13.40
2018-10-21T09:44:21.377Z,13.40
2018-10-21T09:49:25.921Z,13.60
2018-10-21T09:54:29.420Z,13.70
2018-10-21T09:59:33.158Z,13.80
2018-10-21T10:04:36.695Z,13.80
2018-10-21T10:09:40.298Z,13.90
2018-10-21T10:14:44.331Z,14.00
2018-10-21T10:19:47.929Z,14.10
2018-10-21T10:24:51.469Z,14.00
2018-10-21T10:29:55.084Z,14.00
2018-10-21T10:34:58.571Z,14.10
2018-10-21T10:40:02.183Z,14.20
2018-10-21T10:45:07.836Z,14.30
2018-10-21T10:50:11.703Z,14.30
2018-10-21T10:55:15.446Z,14.50
2018-10-21T11:00:18.911Z,14.60
2018-10-21T11:05:22.512Z,14.70
2018-10-21T11:10:25.986Z,14.80
2018-10-21T11:15:29.786Z,14.90
2018-10-21T11:20:33.490Z,14.90
2018-10-21T11:25:37.046Z,15.10
2018-10-21T11:30:40.603Z,15.30
2018-10-21T11:35:44.089Z,15.40
2018-10-21T11:40:47.616Z,15.40
2018-10-21T11:45:51.258Z,15.40
2018-10-21T11:50:54.700Z,15.50
2018-10-21T11:55:58.149Z,15.60
2018-10-21T12:01:01.717Z,15.60
2018-10-21T12:06:05.829Z,15.60
2018-10-21T12:11:09.388Z,15.60
2018-10-21T12:16:12.960Z,15.60
2018-10-21T12:21:16.516Z,15.70
2018-10-21T12:26:19.956Z,15.60
2018-10-21T12:31:23.463Z,15.60
2018-10-21T12:36:26.993Z,15.70
2018-10-21T12:41:30.535Z,15.80
2018-10-21T12:46:34.101Z,15.70
2018-10-21T12:51:37.663Z,15.80
2018-10-21T12:56:41.274Z,15.80
2018-10-21T13:01:44.846Z,15.90
2018-10-21T13:06:48.334Z,15.90
2018-10-21T13:11:51.792Z,15.80
2018-10-21T13:16:55.266Z,15.90
2018-10-21T13:21:58.778Z,15.80
2018-10-21T13:27:02.314Z,15.80
2018-10-21T13:32:06.935Z,15.80
2018-10-21T13:37:10.461Z,15.70
2018-10-21T13:42:13.940Z,15.60
2018-10-21T13:47:17.492Z,15.60
2018-10-21T13:52:20.993Z,15.60
2018-10-21T13:57:24.447Z,15.50
2018-10-21T14:02:28.893Z,15.50
2018-10-21T14:07:32.521Z,15.60
2018-10-21T14:12:36.032Z,15.60
2018-10-21T14:17:39.535Z,15.60
2018-10-21T14:22:43.276Z,15.60
2018-10-21T14:27:46.779Z,15.60
2018-10-21T14:32:50.355Z,15.70
2018-10-21T14:37:54.242Z,15.80
2018-10-21T14:42:57.738Z,15.90
2018-10-21T14:48:01.249Z,15.90
2018-10-21T14:53:05.141Z,15.80
2018-10-21T14:58:08.680Z,15.60
2018-10-21T15:03:12.224Z,15.50
2018-10-21T15:08:16.034Z,15.40
2018-10-21T15:13:19.677Z,15.40
2018-10-21T15:18:23.185Z,15.40
2018-10-21T15:23:26.811Z,15.30
2018-10-21T15:28:30.295Z,15.30
2018-10-21T15:33:33.977Z,15.30
2018-10-21T15:38:37.511Z,15.30
2018-10-21T15:43:41.609Z,15.40
2018-10-21T15:48:45.228Z,15.30
2018-10-21T15:53:48.786Z,15.30
2018-10-21T15:58:52.359Z,15.20
2018-10-21T16:03:56.067Z,15.20
2018-10-21T16:08:59.558Z,15.50
2018-10-21T16:14:03.387Z,16.10
2018-10-21T16:19:06.924Z,15.50
2018-10-21T16:24:10.440Z,15.30
2018-10-21T16:29:14.339Z,15.20
2018-10-21T16:34:18.979Z,15.20
2018-10-21T16:39:22.382Z,15.20
2018-10-21T16:44:25.967Z,15.20
2018-10-21T16:49:29.703Z,15.10
2018-10-21T16:54:33.306Z,15.10
2018-10-21T16:59:37.475Z,15.10
2018-10-21T17:04:41.031Z,15.10
2018-10-21T17:09:45.007Z,15.00
2018-10-21T17:14:48.669Z,15.10
2018-10-21T17:19:52.273Z,15.00
2018-10-21T17:24:55.820Z,15.00
2018-10-21T17:29:59.303Z,15.00
2018-10-21T17:35:02.873Z,15.00
2018-10-21T17:40:10.536Z,14.90
2018-10-21T17:45:14.737Z,14.90
2018-10-21T17:50:18.307Z,14.90
2018-10-21T17:55:21.844Z,14.80
2018-10-21T18:00:25.516Z,14.80
2018-10-21T18:05:29.077Z,14.80
2018-10-21T18:10:32.526Z,14.80
2018-10-21T18:15:36.036Z,14.70
2018-10-21T18:20:39.557Z,14.70
2018-10-21T18:25:43.575Z,14.70
2018-10-21T18:30:47.403Z,14.70
2018-10-21T18:35:50.928Z,14.60
2018-10-21T18:40:54.592Z,14.60
2018-10-21T18:45:58.198Z,14.60
2018-10-21T18:51:01.849Z,14.50
2018-10-21T18:56:05.666Z,14.40
2018-10-21T19:01:09.176Z,14.40
2018-10-21T19:06:12.675Z,14.30
2018-10-21T19:11:16.382Z,14.20
2018-10-21T19:16:19.838Z,14.10
2018-10-21T19:21:23.351Z,14.10
2018-10-21T19:26:26.848Z,14.10
2018-10-21T19:31:30.281Z,14.00
2018-10-21T19:36:33.735Z,14.00
2018-10-21T19:41:37.191Z,14.00
2018-10-21T19:46:40.743Z,14.00
2018-10-21T19:51:44.608Z,14.10
2018-10-21T19:56:48.145Z,14.10
2018-10-21T20:01:51.640Z,14.10
2018-10-21T20:06:55.152Z,14.10
2018-10-21T20:11:58.719Z,14.10
2018-10-21T20:17:02.245Z,14.10
2018-10-21T20:22:11.525Z,14.00
2018-10-21T20:27:14.971Z,14.00
2018-10-21T20:32:18.388Z,14.00
2018-10-21T20:37:22.413Z,14.00
2018-10-21T20:42:25.945Z,14.00
2018-10-21T20:47:29.508Z,14.00
2018-10-21T20:52:33.037Z,14.00
2018-10-21T20:57:36.608Z,14.10
2018-10-21T21:02:40.123Z,14.10
2018-10-21T21:07:43.620Z,14.00
2018-10-21T21:12:47.224Z,14.00
2018-10-21T21:17:50.754Z,14.10
2018-10-21T21:22:54.641Z,14.30
2018-10-21T21:27:58.236Z,14.50
2018-10-21T21:33:01.683Z,14.60
2018-10-21T21:38:06.141Z,14.70
2018-10-21T21:43:09.628Z,14.60
2018-10-21T21:48:13.216Z,14.40
2018-10-21T21:53:16.618Z,14.20
2018-10-21T21:58:20.257Z,14.10
2018-10-21T22:03:23.664Z,14.10
2018-10-21T22:08:27.108Z,14.00
2018-10-21T22:13:30.571Z,14.10
2018-10-21T22:18:34.391Z,14.00
2018-10-21T22:23:37.855Z,14.00
2018-10-21T22:28:41.408Z,14.00
2018-10-21T22:33:44.956Z,14.10
2018-10-21T22:38:48.429Z,14.10
2018-10-21T22:43:52.083Z,14.10
2018-10-21T22:48:55.588Z,14.10
2018-10-21T22:53:59.072Z,14.20
2018-10-21T22:59:02.549Z,14.20
2018-10-21T23:04:06.038Z,14.10
2018-10-21T23:09:10.680Z,14.10
2018-10-21T23:14:14.143Z,14.00
2018-10-21T23:19:37.633Z,14.00
2018-10-21T23:24:41.480Z,14.00
2018-10-21T23:29:45.133Z,13.90
2018-10-21T23:34:48.616Z,13.90
2018-10-21T23:39:52.339Z,13.80
2018-10-21T23:44:55.745Z,13.80
2018-10-21T23:49:59.221Z,13.80
2018-10-21T23:55:02.780Z,13.80
